Skip Navigation Links Skip Navigation Links

Current Weather

Heathrow, London

For information only: do not use for flight planning or navigation.
Latest weather
Observation time Friday, February 23, 2018 2:20 AM GMT
Local time Friday, February 23, 2018 2:41 AM GMT
Flight conditions Marginal Visual Meteorological Conditions
Winds
Wind direction Northeast (40°)
Wind speed 6 mph
Visibility 4.3 mi.
Sky condition
Ceiling unlimited
Temperature 32°F
Dewpoint 30°F
Altimeter 30.18 in.Hg
Derived measurements
Relative humidity 93%
Wind chill 26°F
Density altitude -2045 ft.
Remarks
Fully automated report.
METAR EGLL 230220Z AUTO 04005KT 7000 NCD 00/M01 Q1022

Settings

Location code

InnerDrive.Weather 4.0.6615.0 Release CLR 4.0.30319.42000
Copyright ©2018 Inner Drive Technology. All rights reserved. Portions Copyright ©1986-2018 David Braverman.

Find weather

Site navigation


Skip Navigation Links

Place info

Page info

PayPal - The safer, easier way to pay online!

Return home.

Copyright ©2018 Inner Drive Technology. Purveyors of fine, hand-crafted computer software. Page printed 2018-02-23T02:41:47 UTC.